Du har inga inställningar för hoppväder.nu

Hoppväder.nu

Senast uppdaterat 03:37

UTC-tid

2021-10-25 kl. 01:37


Sol och måne

Solen går upp 8:07 och går ner 18:01 (beräknade cirkatider)
Nästa fullmåne blir om 25 dagar (2021-11-19)

METAR

ESSA (Arlanda, Stockholm)
(17 minuter sedan)
ESSA 250120Z 23017KT CAVOK 09/04 Q1015 NOSIG=



ESSD (Borlänge)
(17 minuter sedan)
ESSD 250120Z AUTO 23013KT 9999 BKN016/// OVC055/// 09/06 Q1012=



EFMA (Mariehamn)
(17 minuter sedan)
EFMA 250120Z AUTO 22009KT 180V260 9999 FEW040 10/05 Q1015=



ESOW (Västerås)
(17 minuter sedan)
ESOW 250120Z AUTO 21012KT 9999 OVC064/// 09/04 Q1016=






TAF

ESSA (Arlanda, Stockholm)
(1567 minuter sedan)
ESSA 242330Z 2500/2524 22014KT 9999 FEW030 PROB40 2503/2506 BKN007 PROB40 2521/2524 RA=



ESSD (Borlänge)
ESSD



EFMA (Mariehamn)
(1572 minuter sedan)
EFMA 242325Z 2500/2509 22011G22KT 9999 OVC045 PROB30 TEMPO 2506/2509 BKN014=



ESOW (Västerås)
ESOW





Kodnycklar till TAF och METAR






LHP

(Gryttjom är område se34e i Delområde 1)

Prognos är inte uppdaterad






Preliminär prognos